createdAt,value
2018-11-29T00:00:36.817Z,19.33
2018-11-29T00:05:40.700Z,18.57
2018-11-29T00:10:43.897Z,19.63
2018-11-29T00:15:47.097Z,19.47
2018-11-29T00:20:50.253Z,20.47
2018-11-29T00:25:53.447Z,19.73
2018-11-29T00:30:56.721Z,21.53
2018-11-29T00:35:59.865Z,20.80
2018-11-29T00:41:03.060Z,19.43
2018-11-29T00:46:06.291Z,20.40
2018-11-29T00:51:09.456Z,21.33
2018-11-29T00:56:12.645Z,19.80
2018-11-29T01:01:15.792Z,18.57
2018-11-29T01:06:18.954Z,19.80
2018-11-29T01:11:22.180Z,20.17
2018-11-29T01:16:25.352Z,18.97
2018-11-29T01:21:28.629Z,19.03
2018-11-29T01:26:31.801Z,18.60
2018-11-29T01:31:35.500Z,19.10
2018-11-29T01:36:38.733Z,19.20
2018-11-29T01:41:41.952Z,19.40
2018-11-29T01:46:45.149Z,17.93
2018-11-29T01:51:48.288Z,21.03
2018-11-29T01:56:51.449Z,17.73
2018-11-29T02:01:54.615Z,18.73
2018-11-29T02:06:57.752Z,18.13
2018-11-29T02:12:00.992Z,20.10
2018-11-29T02:17:05.281Z,19.97
2018-11-29T02:22:08.516Z,17.90
2018-11-29T02:27:11.777Z,20.33
2018-11-29T02:32:14.921Z,19.33
2018-11-29T02:37:18.165Z,18.27
2018-11-29T02:42:21.343Z,18.80
2018-11-29T02:47:24.554Z,16.77
2018-11-29T02:52:27.712Z,14.90
2018-11-29T02:57:31.070Z,16.17
2018-11-29T03:02:34.217Z,16.87
2018-11-29T03:07:38.057Z,14.13
2018-11-29T03:12:41.714Z,17.00
2018-11-29T03:17:45.206Z,15.27
2018-11-29T03:22:48.360Z,18.00
2018-11-29T03:27:52.434Z,18.00
2018-11-29T03:32:55.677Z,17.00
2018-11-29T03:37:58.906Z,17.63
2018-11-29T03:43:02.155Z,16.40
2018-11-29T03:48:05.308Z,17.00
2018-11-29T03:53:08.492Z,17.97
2018-11-29T03:58:11.638Z,19.73
2018-11-29T04:03:14.781Z,16.83
2018-11-29T04:08:17.924Z,18.00
2018-11-29T04:13:21.068Z,20.27
2018-11-29T04:18:24.345Z,18.73
2018-11-29T04:23:27.507Z,18.53
2018-11-29T04:28:30.759Z,15.73
2018-11-29T04:33:33.903Z,16.53
2018-11-29T04:38:37.228Z,17.07
2018-11-29T04:43:40.493Z,18.33
2018-11-29T04:48:43.653Z,17.17
2018-11-29T04:53:46.829Z,18.30
2018-11-29T04:58:49.973Z,17.57
2018-11-29T05:03:54.078Z,15.53
2018-11-29T05:08:57.327Z,17.37
2018-11-29T05:14:01.456Z,18.87
2018-11-29T05:19:04.666Z,15.07
2018-11-29T05:24:07.872Z,16.10
2018-11-29T05:29:10.992Z,17.70
2018-11-29T05:34:14.402Z,15.83
2018-11-29T05:39:18.209Z,15.50
2018-11-29T05:44:21.366Z,16.77
2018-11-29T05:49:24.769Z,18.70
2018-11-29T05:54:27.978Z,18.17
2018-11-29T05:59:31.162Z,15.30
2018-11-29T06:04:34.553Z,21.73
2018-11-29T06:09:37.781Z,18.93
2018-11-29T06:14:40.965Z,20.03
2018-11-29T06:19:44.119Z,18.37
2018-11-29T06:24:47.820Z,16.57
2018-11-29T06:29:51.104Z,17.00
2018-11-29T06:34:54.328Z,18.57
2018-11-29T06:39:57.621Z,17.33
2018-11-29T06:45:00.821Z,17.73
2018-11-29T06:50:08.858Z,19.50
2018-11-29T06:55:16.063Z,18.47
2018-11-29T07:00:26.367Z,20.47
2018-11-29T07:05:29.532Z,18.70
2018-11-29T07:10:33.165Z,17.73
2018-11-29T07:15:36.381Z,16.47
2018-11-29T07:20:39.582Z,16.93
2018-11-29T07:25:42.793Z,17.77
2018-11-29T07:30:45.956Z,18.03
2018-11-29T07:35:49.118Z,17.87
2018-11-29T07:40:52.604Z,15.37
2018-11-29T07:45:55.752Z,16.40
2018-11-29T07:50:58.956Z,17.77
2018-11-29T07:56:02.140Z,19.00
2018-11-29T08:01:06.101Z,18.00
2018-11-29T08:06:09.288Z,17.67
2018-11-29T08:11:12.554Z,18.60
2018-11-29T08:16:15.858Z,20.23
2018-11-29T08:21:19.580Z,19.90
2018-11-29T08:26:22.799Z,19.83
2018-11-29T08:31:25.982Z,17.63
2018-11-29T08:36:29.196Z,19.03
2018-11-29T08:41:33.322Z,17.87
2018-11-29T08:46:36.532Z,19.53
2018-11-29T08:51:40.357Z,17.40
2018-11-29T08:56:43.838Z,22.77
2018-11-29T09:01:47.582Z,22.30
2018-11-29T09:06:50.816Z,22.40
2018-11-29T09:11:53.981Z,18.83
2018-11-29T09:16:57.329Z,18.43
2018-11-29T09:22:01.254Z,19.10
2018-11-29T09:27:04.664Z,19.03
2018-11-29T09:32:07.984Z,17.13
2018-11-29T09:37:11.286Z,17.33
2018-11-29T09:42:14.721Z,17.87
2018-11-29T09:47:17.901Z,17.40
2018-11-29T09:52:21.091Z,16.23
2018-11-29T09:57:24.321Z,14.77
2018-11-29T10:02:27.486Z,15.43
2018-11-29T10:07:30.721Z,15.90
2018-11-29T10:12:33.977Z,16.10
2018-11-29T10:17:37.207Z,14.37
2018-11-29T10:22:41.861Z,15.47
2018-11-29T10:27:47.812Z,14.40
2018-11-29T10:32:51.049Z,14.33
2018-11-29T10:37:54.237Z,11.97
2018-11-29T10:42:57.964Z,11.93
2018-11-29T10:48:01.125Z,12.67
2018-11-29T10:53:04.700Z,11.17
2018-11-29T10:58:07.886Z,10.40
2018-11-29T11:03:17.257Z,10.60
2018-11-29T11:08:21.034Z,11.30
2018-11-29T11:13:24.313Z,11.07
2018-11-29T11:18:27.606Z,9.77
2018-11-29T11:23:30.777Z,10.70
2018-11-29T11:28:34.017Z,10.63
2018-11-29T11:33:37.754Z,10.30
2018-11-29T11:38:40.976Z,10.97
2018-11-29T11:43:44.243Z,11.20
2018-11-29T11:48:47.430Z,9.80
2018-11-29T11:53:50.769Z,11.43
2018-11-29T11:58:54.086Z,10.10
2018-11-29T12:03:57.400Z,9.87
2018-11-29T12:09:00.721Z,10.50
2018-11-29T12:14:04.072Z,11.17
2018-11-29T12:19:07.299Z,10.43
2018-11-29T12:24:10.512Z,11.20
2018-11-29T12:29:14.564Z,10.73
2018-11-29T12:34:17.759Z,10.43
2018-11-29T12:39:21.625Z,9.90
2018-11-29T12:44:24.832Z,10.97
2018-11-29T12:49:27.983Z,12.73
2018-11-29T12:54:31.154Z,8.80
2018-11-29T12:59:35.346Z,9.70
2018-11-29T13:04:39.546Z,9.10
2018-11-29T13:09:42.729Z,8.87
2018-11-29T13:14:45.965Z,10.53
2018-11-29T13:19:49.159Z,11.07
2018-11-29T13:24:52.309Z,10.93
2018-11-29T13:29:55.504Z,10.53
2018-11-29T13:34:58.677Z,10.83
2018-11-29T13:40:01.894Z,12.13
2018-11-29T13:45:08.864Z,10.50
2018-11-29T13:50:14.466Z,12.00
2018-11-29T13:55:17.695Z,12.10
2018-11-29T14:00:22.314Z,11.07
2018-11-29T14:05:25.580Z,10.67
2018-11-29T14:10:28.742Z,10.67
2018-11-29T14:15:31.989Z,12.33
2018-11-29T14:20:35.511Z,11.53
2018-11-29T14:25:38.488Z,11.67
2018-11-29T14:30:41.647Z,10.77
2018-11-29T14:35:44.837Z,11.53
2018-11-29T14:40:47.975Z,12.17
2018-11-29T14:45:51.171Z,12.67
2018-11-29T14:50:54.394Z,12.43
2018-11-29T14:55:57.624Z,13.93
2018-11-29T15:01:00.861Z,13.20
2018-11-29T15:06:04.089Z,14.23
2018-11-29T15:11:07.305Z,13.60
2018-11-29T15:16:10.552Z,11.67
2018-11-29T15:21:13.737Z,12.27
2018-11-29T15:26:16.953Z,12.53
2018-11-29T15:31:20.176Z,12.47
2018-11-29T15:36:23.410Z,11.63
2018-11-29T15:41:26.634Z,11.80
2018-11-29T15:46:29.833Z,11.50
2018-11-29T15:51:33.022Z,12.43
2018-11-29T15:56:36.272Z,11.60
2018-11-29T16:01:39.483Z,12.33
2018-11-29T16:06:42.710Z,13.20
2018-11-29T16:11:45.978Z,11.83
2018-11-29T16:16:49.181Z,12.73
2018-11-29T16:21:52.394Z,12.03
2018-11-29T16:26:55.541Z,12.70
2018-11-29T16:31:58.782Z,13.83
2018-11-29T16:37:02.051Z,12.70
2018-11-29T16:42:05.424Z,14.07
2018-11-29T16:47:08.629Z,15.20
2018-11-29T16:52:11.922Z,13.40
2018-11-29T16:57:15.126Z,13.50
2018-11-29T17:02:18.357Z,12.57
2018-11-29T17:07:21.649Z,15.57
2018-11-29T17:12:24.832Z,14.40
2018-11-29T17:17:28.078Z,16.07
2018-11-29T17:22:31.336Z,16.43
2018-11-29T17:27:34.626Z,15.70
2018-11-29T17:32:37.856Z,16.00
2018-11-29T17:37:41.133Z,16.77
2018-11-29T17:42:44.363Z,17.00
2018-11-29T17:47:48.365Z,18.03
2018-11-29T17:52:51.627Z,17.40
2018-11-29T17:57:54.914Z,19.47
2018-11-29T18:02:58.233Z,17.90
2018-11-29T18:08:01.505Z,19.70
2018-11-29T18:13:09.949Z,23.53
2018-11-29T18:18:13.406Z,17.30
2018-11-29T18:23:16.703Z,18.43
2018-11-29T18:28:19.995Z,21.20
2018-11-29T18:33:23.218Z,20.27
2018-11-29T18:38:26.467Z,17.93
2018-11-29T18:43:29.692Z,19.43
2018-11-29T18:48:32.929Z,19.50
2018-11-29T18:53:36.206Z,18.53
2018-11-29T18:58:41.301Z,17.30
2018-11-29T19:03:45.378Z,18.70
2018-11-29T19:08:48.721Z,19.07
2018-11-29T19:13:52.067Z,18.33
2018-11-29T19:18:55.465Z,16.10
2018-11-29T19:23:59.227Z,17.70
2018-11-29T19:29:02.648Z,16.23
2018-11-29T19:34:06.236Z,17.97
2018-11-29T19:39:09.733Z,18.13
2018-11-29T19:44:14.579Z,20.93
2018-11-29T19:49:17.865Z,17.40
2018-11-29T19:54:21.218Z,20.17
2018-11-29T19:59:24.578Z,16.83
2018-11-29T20:04:27.926Z,15.97
2018-11-29T20:09:31.261Z,18.60
2018-11-29T20:14:34.692Z,20.03
2018-11-29T20:19:38.073Z,17.97
2018-11-29T20:24:41.396Z,18.90
2018-11-29T20:29:44.678Z,18.17
2018-11-29T20:34:47.970Z,17.60
2018-11-29T20:39:51.379Z,17.90
2018-11-29T20:44:54.667Z,16.37
2018-11-29T20:49:57.951Z,18.60
2018-11-29T20:55:01.289Z,16.60
2018-11-29T21:00:09.918Z,16.43
2018-11-29T21:05:16.134Z,18.80
2018-11-29T21:10:22.233Z,17.43
2018-11-29T21:15:25.603Z,20.10
2018-11-29T21:20:28.912Z,16.73
2018-11-29T21:25:32.134Z,15.97
2018-11-29T21:30:35.494Z,15.60
2018-11-29T21:35:38.915Z,14.40
2018-11-29T21:41:00.969Z,18.20
2018-11-29T21:46:04.258Z,15.90
2018-11-29T21:51:08.340Z,16.10
2018-11-29T21:56:11.588Z,16.00
2018-11-29T22:01:14.881Z,14.07
2018-11-29T22:06:18.076Z,17.57
2018-11-29T22:11:21.312Z,14.10
2018-11-29T22:16:24.560Z,17.67
2018-11-29T22:21:27.793Z,17.00
2018-11-29T22:26:31.073Z,13.40
2018-11-29T22:31:34.301Z,14.97
2018-11-29T22:36:37.477Z,17.90
2018-11-29T22:41:47.456Z,17.77
2018-11-29T22:46:50.744Z,16.53
2018-11-29T22:51:53.981Z,16.50
2018-11-29T22:56:57.201Z,16.77
2018-11-29T23:02:00.440Z,15.77
2018-11-29T23:07:03.695Z,15.57
2018-11-29T23:12:06.853Z,16.63
2018-11-29T23:17:10.332Z,18.30
2018-11-29T23:22:13.645Z,16.77
2018-11-29T23:27:16.846Z,17.60
2018-11-29T23:32:20.141Z,19.23
2018-11-29T23:37:23.347Z,16.40
2018-11-29T23:42:26.515Z,18.77
2018-11-29T23:47:29.696Z,17.27
2018-11-29T23:52:32.854Z,19.83
2018-11-29T23:57:36.036Z,18.80
